Time;durP1;ratioP1;P1;durP2;ratioP2;P2;SDS_P1;SDS_P2;PMS_P1;PMS_P2;Temp;Humidity;BMP_temperature;BMP_pressure;BME280_temperature;BME280_humidity;BME280_pressure;Samples;Min_cycle;Max_cycle;Signal;HPM_P1;HPM_P2
2023/07/08 00:00:53;;;;;;;6.95;4.03;;;;;;;17.89;62.81;102167.38;7396604;19;20011;-60
2023/07/08 00:03:20;;;;;;;7.88;4.38;;;;;;;17.85;63.19;102164.09;7396283;19;20014;-59
2023/07/08 00:05:52;;;;;;;9.10;4.18;;;;;;;17.90;62.77;102161.91;7395438;19;20078;-59
2023/07/08 00:08:20;;;;;;;9.20;4.10;;;;;;;17.90;62.86;102167.28;7392715;19;20502;-59
2023/07/08 00:10:48;;;;;;;10.88;4.40;;;;;;;17.92;62.87;102159.09;7396498;19;20085;-59
2023/07/08 00:13:15;;;;;;;7.80;4.35;;;;;;;17.85;62.97;102155.22;7395843;19;20626;-60
2023/07/08 00:15:42;;;;;;;7.65;4.28;;;;;;;17.85;62.84;102150.72;7396178;19;20014;-60
2023/07/08 00:18:15;;;;;;;6.90;3.75;;;;;;;17.84;63.21;102156.19;7394654;19;20018;-60
2023/07/08 00:20:49;;;;;;;7.80;4.30;;;;;;;17.87;63.43;102153.28;7396279;19;20039;-61
2023/07/08 00:23:21;;;;;;;9.90;4.03;;;;;;;17.80;63.25;102154.75;7395968;19;20036;-61
2023/07/08 00:25:49;;;;;;;10.10;4.70;;;;;;;17.83;63.02;102152.69;7395291;19;20021;-60
2023/07/08 00:28:23;;;;;;;10.10;4.28;;;;;;;17.85;62.86;102152.53;7393955;19;20487;-60
2023/07/08 00:30:50;;;;;;;9.15;4.20;;;;;;;17.79;63.29;102153.91;7395749;19;20039;-61
2023/07/08 00:33:17;;;;;;;11.57;3.92;;;;;;;17.75;63.09;102149.78;7395764;19;20037;-61
2023/07/08 00:35:45;;;;;;;7.93;3.90;;;;;;;17.76;63.59;102155.00;7394394;19;20582;-61
2023/07/08 00:38:19;;;;;;;8.00;4.55;;;;;;;17.74;63.13;102151.59;7394369;19;20022;-60
2023/07/08 00:40:50;;;;;;;;;;;;;;;17.57;64.19;102149.41;7396226;19;20050;-61
2023/07/08 00:43:23;;;;;;;9.63;4.60;;;;;;;17.53;64.12;102148.81;7394985;19;20344;-60
2023/07/08 00:45:58;;;;;;;9.15;5.10;;;;;;;17.59;64.12;102142.13;7392535;19;20543;-61
2023/07/08 00:48:33;;;;;;;9.27;4.82;;;;;;;17.51;64.17;102149.88;7393176;19;20014;-60
2023/07/08 00:51:00;;;;;;;6.45;4.25;;;;;;;17.48;64.11;102142.97;7395156;19;20019;-63
2023/07/08 00:53:33;;;;;;;9.45;4.35;;;;;;;17.44;64.36;102140.69;7392891;19;20025;-60
2023/07/08 00:56:07;;;;;;;7.60;4.43;;;;;;;17.42;64.30;102146.13;7394956;19;20015;-60
2023/07/08 00:58:36;;;;;;;;;;;;;;;17.39;64.42;102141.03;7393934;19;20085;-58
2023/07/08 01:01:06;;;;;;;9.95;4.22;;;;;;;17.39;64.32;102140.19;7395157;19;20270;-59
2023/07/08 01:03:42;;;;;;;9.23;4.70;;;;;;;17.47;64.16;102132.38;7394526;19;20026;-59
2023/07/08 01:06:09;;;;;;;8.43;4.45;;;;;;;17.42;64.06;102137.25;7387660;19;20097;-59
2023/07/08 01:08:37;;;;;;;9.38;4.50;;;;;;;17.42;63.77;102135.41;7386676;19;20038;-60
2023/07/08 01:11:04;;;;;;;10.15;4.55;;;;;;;17.44;64.11;102140.69;7390096;19;20026;-59
2023/07/08 01:13:38;;;;;;;11.63;5.07;;;;;;;17.45;63.97;102135.19;7387605;19;20030;-61
2023/07/08 01:16:07;;;;;;;8.43;4.38;;;;;;;17.41;63.96;102136.41;7389783;19;20022;-64
2023/07/08 01:18:35;;;;;;;7.50;4.60;;;;;;;17.31;64.20;102132.75;7388012;19;20500;-61
2023/07/08 01:21:06;;;;;;;11.35;4.68;;;;;;;17.29;64.13;102121.34;7390953;19;20019;-60
2023/07/08 01:23:36;;;;;;;9.07;4.53;;;;;;;17.27;64.17;102126.78;7391014;19;20104;-60
2023/07/08 01:26:04;;;;;;;7.95;4.65;;;;;;;17.27;64.62;102125.94;7389699;19;20024;-60
2023/07/08 01:28:31;;;;;;;9.65;4.80;;;;;;;17.27;64.27;102126.78;7388565;19;20046;-60
2023/07/08 01:31:00;;;;;;;8.65;4.60;;;;;;;17.28;64.30;102122.28;7390085;19;20037;-61
2023/07/08 01:33:34;;;;;;;10.02;5.07;;;;;;;17.28;64.60;102116.94;7390503;19;20046;-60
2023/07/08 01:36:01;;;;;;;8.57;4.32;;;;;;;17.32;63.83;102117.53;7390230;19;20014;-60
2023/07/08 01:38:28;;;;;;;7.60;4.20;;;;;;;17.38;64.03;102117.91;7388994;19;20018;-59
2023/07/08 01:40:57;;;;;;;7.07;4.57;;;;;;;17.32;64.27;102122.91;7389640;19;20444;-59
2023/07/08 01:43:25;;;;;;;8.50;4.68;;;;;;;17.36;64.19;102117.19;7390193;19;20023;-60
2023/07/08 01:45:53;;;;;;;8.18;4.28;;;;;;;17.34;64.12;102112.91;7389263;19;20082;-60
2023/07/08 01:48:24;;;;;;;8.27;4.70;;;;;;;17.23;64.59;102109.28;7388640;19;20123;-59
2023/07/08 01:50:56;;;;;;;9.07;5.07;;;;;;;17.14;64.97;102107.34;7389334;19;20058;-60
2023/07/08 01:53:41;;;;;;;11.35;5.05;;;;;;;17.14;64.60;102103.81;7389804;19;20015;-58
2023/07/08 01:56:11;;;;;;;8.55;5.05;;;;;;;17.12;64.70;102103.06;7388818;19;20019;-59
2023/07/08 01:58:38;;;;;;;8.63;4.93;;;;;;;17.08;64.52;102105.16;7387863;19;20046;-59
2023/07/08 02:01:07;;;;;;;8.82;5.07;;;;;;;17.03;64.88;102110.03;7388970;19;20520;-59
2023/07/08 02:03:35;;;;;;;9.75;4.95;;;;;;;17.08;64.83;102105.16;7389475;19;20018;-58
2023/07/08 02:06:03;;;;;;;9.02;5.05;;;;;;;17.10;64.74;102111.25;7388161;19;20038;-59
2023/07/08 02:08:30;;;;;;;8.52;4.70;;;;;;;17.09;64.73;102106.84;7388060;19;20026;-59
2023/07/08 02:10:58;;;;;;;10.10;5.03;;;;;;;17.07;64.80;102105.28;7389123;19;20022;-59
2023/07/08 02:13:26;;;;;;;9.02;5.03;;;;;;;16.99;65.01;102101.38;7389835;19;20029;-59
2023/07/08 02:15:54;;;;;;;10.95;5.45;;;;;;;16.93;65.24;102101.00;7388149;19;20015;-59
2023/07/08 02:18:24;;;;;;;10.45;5.40;;;;;;;16.96;65.16;102098.94;7387638;19;20026;-59
2023/07/08 02:20:52;;;;;;;9.90;5.50;;;;;;;16.93;64.95;102101.84;7392206;19;20503;-57
2023/07/08 02:23:19;;;;;;;10.20;5.38;;;;;;;16.88;65.20;102105.88;7396829;19;20516;-65
2023/07/08 02:25:53;;;;;;;9.05;5.75;;;;;;;16.91;65.15;102102.97;7394629;19;20056;-64
2023/07/08 02:28:21;;;;;;;11.27;5.30;;;;;;;16.86;65.46;102107.81;7392760;19;20034;-63
2023/07/08 02:30:48;;;;;;;9.98;5.18;;;;;;;16.90;64.81;102109.28;7395651;19;20018;-64
2023/07/08 02:33:17;;;;;;;9.93;5.10;;;;;;;16.77;65.61;102107.56;7395578;19;20084;-64
2023/07/08 02:35:47;;;;;;;8.93;5.10;;;;;;;16.85;65.38;102106.97;7395456;19;20026;-65
2023/07/08 02:38:15;;;;;;;9.70;5.35;;;;;;;16.81;65.41;102103.69;7393334;19;20014;-66
2023/07/08 02:40:42;;;;;;;10.20;5.40;;;;;;;16.79;65.31;102097.59;7395509;19;20011;-63
2023/07/08 02:43:10;;;;;;;10.25;5.32;;;;;;;16.80;65.37;102103.81;7395469;19;20018;-61
2023/07/08 02:45:37;;;;;;;10.23;5.07;;;;;;;16.74;65.59;102104.28;7395251;19;20026;-62
2023/07/08 02:48:04;;;;;;;9.25;5.25;;;;;;;16.70;65.65;102097.44;7394287;19;20377;-63
2023/07/08 02:50:32;;;;;;;9.32;5.43;;;;;;;16.72;65.41;102101.69;7395359;19;20376;-61
2023/07/08 02:52:59;;;;;;;9.20;5.50;;;;;;;16.67;65.78;102100.34;7393656;19;20014;-63
2023/07/08 02:55:26;;;;;;;8.30;5.30;;;;;;;16.74;65.50;102102.44;7394275;19;20096;-64
2023/07/08 02:57:53;;;;;;;9.82;5.55;;;;;;;16.72;65.62;102106.22;7394318;19;20078;-62
2023/07/08 03:00:21;;;;;;;10.70;5.53;;;;;;;16.66;65.88;102095.97;7394685;19;20019;-62
2023/07/08 03:02:48;;;;;;;9.10;5.40;;;;;;;16.62;66.02;102095.34;7394763;19;20019;-62
2023/07/08 03:05:15;;;;;;;9.65;5.60;;;;;;;16.63;65.74;102091.69;7394411;19;20066;-64
2023/07/08 03:07:43;;;;;;;10.05;5.75;;;;;;;16.61;66.10;102085.63;7394148;19;20014;-65
2023/07/08 03:10:10;;;;;;;8.88;5.47;;;;;;;16.45;66.51;102083.31;7393018;19;20475;-60
2023/07/08 03:12:37;;;;;;;10.15;5.65;;;;;;;16.54;66.29;102084.41;7394342;19;20019;-61
2023/07/08 03:15:05;;;;;;;10.90;6.20;;;;;;;16.54;66.00;102081.72;7391956;19;20094;-60
2023/07/08 03:17:32;;;;;;;10.48;5.88;;;;;;;16.52;66.17;102091.69;7393797;19;20043;-60
2023/07/08 03:20:00;;;;;;;10.23;5.97;;;;;;;16.51;65.98;102085.47;7394850;19;20018;-60
2023/07/08 03:22:27;;;;;;;9.32;5.70;;;;;;;16.51;65.92;102088.16;7394439;19;20014;-60
2023/07/08 03:24:55;;;;;;;10.35;5.95;;;;;;;16.50;66.01;102086.47;7393237;19;20145;-60
2023/07/08 03:27:23;;;;;;;9.70;6.05;;;;;;;16.32;66.38;102080.69;7391969;19;20049;-60
2023/07/08 03:29:50;;;;;;;9.70;6.13;;;;;;;16.33;66.76;102084.22;7393926;19;20014;-60
2023/07/08 03:32:17;;;;;;;9.63;6.00;;;;;;;16.31;66.60;102088.84;7392059;19;20018;-60
2023/07/08 03:34:45;;;;;;;9.75;5.85;;;;;;;16.38;66.66;102084.75;7393630;19;20018;-62
2023/07/08 03:37:12;;;;;;;9.85;5.70;;;;;;;16.31;66.78;102087.03;7396010;19;20028;-61
2023/07/08 03:39:39;;;;;;;9.45;5.88;;;;;;;16.42;66.26;102085.38;7393977;19;20018;-61
2023/07/08 03:42:07;;;;;;;9.20;5.60;;;;;;;16.39;66.45;102096.28;7393430;19;20342;-60
2023/07/08 03:44:34;;;;;;;10.15;6.18;;;;;;;16.29;66.74;102090.78;7393666;19;20022;-60
2023/07/08 03:47:01;;;;;;;11.93;6.32;;;;;;;16.28;66.94;102083.75;7392421;19;20026;-60
2023/07/08 03:49:29;;;;;;;12.27;5.97;;;;;;;16.32;66.42;102090.56;7391769;19;20391;-61
2023/07/08 03:51:56;;;;;;;10.23;6.07;;;;;;;16.17;67.11;102084.56;7393320;19;20384;-59
2023/07/08 03:54:24;;;;;;;11.07;6.30;;;;;;;16.10;67.64;102080.63;7392945;19;20085;-59
2023/07/08 03:56:52;;;;;;;9.27;6.05;;;;;;;16.20;67.04;102081.66;7392042;19;20022;-60
2023/07/08 03:59:19;;;;;;;10.30;6.22;;;;;;;16.19;67.00;102082.63;7391334;19;20021;-60
2023/07/08 04:01:47;;;;;;;9.40;5.97;;;;;;;16.23;66.92;102086.78;7392969;19;20015;-61
2023/07/08 04:04:15;;;;;;;11.00;6.35;;;;;;;16.26;66.97;102086.53;7392843;19;20026;-59
2023/07/08 04:06:45;;;;;;;9.57;6.30;;;;;;;16.33;66.63;102082.44;7392322;19;20029;-59
2023/07/08 04:09:12;;;;;;;11.65;6.20;;;;;;;16.37;66.52;102079.50;7390851;19;20018;-58
2023/07/08 04:11:40;;;;;;;12.55;6.25;;;;;;;16.34;66.95;102083.28;7392508;19;20074;-59
2023/07/08 04:14:09;;;;;;;12.70;6.60;;;;;;;16.38;66.87;102078.56;7392857;19;20060;-60
2023/07/08 04:16:45;;;;;;;10.48;6.18;;;;;;;16.49;66.35;102075.91;7391588;19;20625;-60
2023/07/08 04:19:14;;;;;;;11.48;6.35;;;;;;;16.42;66.84;102082.69;7390544;19;20018;-61
2023/07/08 04:21:43;;;;;;;10.63;6.22;;;;;;;16.46;66.54;102076.97;7392430;19;20022;-62
2023/07/08 04:24:12;;;;;;;11.07;5.97;;;;;;;16.51;66.33;102080.13;7391156;19;20069;-62
2023/07/08 04:26:40;;;;;;;10.05;6.05;;;;;;;16.49;66.31;102075.91;7391600;19;20022;-62
2023/07/08 04:29:12;;;;;;;9.10;6.20;;;;;;;16.52;66.22;102080.97;7390617;19;20025;-59
2023/07/08 04:31:39;;;;;;;10.32;6.18;;;;;;;16.57;66.40;102087.69;7390780;19;20518;-58
2023/07/08 04:34:08;;;;;;;10.32;6.13;;;;;;;16.60;65.91;102086.63;7391962;19;20102;-60
2023/07/08 04:36:37;;;;;;;9.95;6.28;;;;;;;16.54;66.52;102079.91;7393052;19;20040;-59
2023/07/08 04:39:06;;;;;;;10.25;6.00;;;;;;;16.60;66.27;102081.28;7390045;19;20043;-59
2023/07/08 04:41:34;;;;;;;11.60;5.80;;;;;;;16.68;65.96;102076.16;7391566;19;20027;-58
2023/07/08 04:44:02;;;;;;;8.82;5.72;;;;;;;16.73;65.93;102089.16;7390744;19;20031;-59
2023/07/08 04:46:50;;;;;;;9.90;5.43;;;;;;;16.84;65.74;102088.38;7391113;19;20018;-58
2023/07/08 04:49:18;;;;;;;9.88;5.30;;;;;;;16.80;65.99;102087.75;7389897;19;20047;-59
2023/07/08 04:51:46;;;;;;;9.40;5.75;;;;;;;16.81;65.95;102095.66;7389619;19;20011;-60
2023/07/08 04:54:13;;;;;;;9.80;6.00;;;;;;;16.85;65.89;102077.53;7391100;19;20017;-60
2023/07/08 04:56:43;;;;;;;8.98;5.53;;;;;;;16.77;66.24;102079.97;7390716;19;20022;-60
2023/07/08 04:59:13;;;;;;;8.95;5.50;;;;;;;16.87;65.98;102078.28;7389547;19;20105;-60
2023/07/08 05:01:41;;;;;;;11.40;5.93;;;;;;;16.80;66.14;102079.72;7390703;19;20044;-60
2023/07/08 05:04:10;;;;;;;10.07;5.40;;;;;;;16.87;66.23;102083.63;7391168;19;20074;-60
2023/07/08 05:06:38;;;;;;;9.80;5.57;;;;;;;16.91;66.13;102076.22;7390335;19;20011;-59
2023/07/08 05:09:05;;;;;;;10.00;5.57;;;;;;;17.01;65.88;102075.34;7389063;19;20038;-59
2023/07/08 05:11:33;;;;;;;9.20;5.47;;;;;;;17.06;66.19;102075.00;7390437;19;20015;-59
2023/07/08 05:14:00;;;;;;;10.45;5.63;;;;;;;17.09;66.24;102071.19;7390761;19;20019;-59
2023/07/08 05:16:28;;;;;;;9.30;5.65;;;;;;;17.26;66.10;102078.72;7390541;19;20011;-59
2023/07/08 05:18:56;;;;;;;8.65;5.45;;;;;;;17.27;66.03;102080.44;7388908;19;20014;-59
2023/07/08 05:21:23;;;;;;;8.70;5.47;;;;;;;17.33;65.93;102074.59;7390379;19;20023;-60
2023/07/08 05:23:50;;;;;;;9.02;5.70;;;;;;;17.43;66.31;102072.00;7390023;19;20019;-60
2023/07/08 05:26:17;;;;;;;8.25;4.90;;;;;;;17.43;65.76;102063.97;7389491;19;20014;-60
2023/07/08 05:28:45;;;;;;;10.85;5.07;;;;;;;17.45;66.37;102070.06;7388559;19;20018;-61
2023/07/08 05:31:12;;;;;;;9.88;4.80;;;;;;;17.49;66.50;102074.19;7389044;19;20014;-60
2023/07/08 05:33:40;;;;;;;9.68;4.80;;;;;;;17.56;66.41;102075.38;7390293;19;20087;-62
2023/07/08 05:36:07;;;;;;;8.15;4.65;;;;;;;17.67;66.13;102080.72;7390207;19;20022;-62
2023/07/08 05:38:34;;;;;;;10.02;4.82;;;;;;;17.75;66.03;102078.28;7388382;19;20087;-62
2023/07/08 05:41:01;;;;;;;9.70;4.90;;;;;;;17.86;66.24;102081.88;7388691;19;20018;-61
2023/07/08 05:43:29;;;;;;;8.18;4.63;;;;;;;17.93;65.69;102078.59;7389670;19;20025;-61
2023/07/08 05:46:01;;;;;;;8.13;4.50;;;;;;;18.05;66.00;102074.03;7388962;19;20105;-62
2023/07/08 05:48:39;;;;;;;7.75;4.53;;;;;;;18.02;66.37;102076.94;7388096;19;20484;-60
2023/07/08 05:51:06;;;;;;;8.60;4.53;;;;;;;18.06;66.41;102069.50;7388396;19;20022;-61
2023/07/08 05:53:34;;;;;;;7.28;4.00;;;;;;;18.07;66.34;102076.56;7389604;19;20101;-61
2023/07/08 05:56:02;;;;;;;7.43;4.13;;;;;;;18.12;66.47;102072.50;7393128;19;20035;-57
2023/07/08 05:58:29;;;;;;;8.93;4.43;;;;;;;18.20;66.55;102071.84;7395346;19;20054;-58
2023/07/08 06:00:57;;;;;;;8.88;4.90;;;;;;;18.31;66.71;102069.09;7396639;19;20018;-57
2023/07/08 06:03:26;;;;;;;6.72;3.97;;;;;;;18.40;66.46;102065.66;7397247;19;20425;-59
2023/07/08 06:05:53;;;;;;;7.45;3.92;;;;;;;18.45;66.34;102068.78;7395884;19;20384;-60
2023/07/08 06:08:21;;;;;;;9.35;4.43;;;;;;;18.52;66.00;102067.25;7395059;19;20039;-59
2023/07/08 06:10:49;;;;;;;5.80;3.30;;;;;;;18.58;65.30;102073.91;7396519;19;20042;-58
2023/07/08 06:13:17;;;;;;;5.97;3.80;;;;;;;18.64;65.16;102070.72;7396776;19;20010;-59
2023/07/08 06:15:44;;;;;;;7.32;3.40;;;;;;;18.70;65.02;102070.22;7395575;19;20498;-58
2023/07/08 06:18:11;;;;;;;8.18;3.25;;;;;;;18.78;64.87;102077.59;7395277;19;20455;-58
2023/07/08 06:20:39;;;;;;;6.30;3.22;;;;;;;18.85;64.83;102077.91;7395977;19;20046;-57
2023/07/08 06:23:06;;;;;;;5.97;3.30;;;;;;;18.89;63.98;102074.00;7396370;19;20035;-58
2023/07/08 06:25:33;;;;;;;7.93;3.28;;;;;;;18.96;64.02;102075.13;7395602;19;20015;-58
2023/07/08 06:28:00;;;;;;;6.80;3.53;;;;;;;19.03;64.13;102073.59;7394880;19;20025;-57
2023/07/08 06:30:28;;;;;;;6.25;3.40;;;;;;;19.08;63.66;102067.81;7395993;19;20023;-58
2023/07/08 06:32:55;;;;;;;9.60;3.47;;;;;;;19.12;63.26;102066.59;7396335;19;20098;-57
2023/07/08 06:35:26;;;;;;;6.60;3.50;;;;;;;19.15;63.09;102068.97;7395027;19;20029;-58
2023/07/08 06:37:53;;;;;;;6.10;3.10;;;;;;;19.20;63.46;102072.97;7399860;19;20039;-58
2023/07/08 06:40:20;;;;;;;5.90;3.30;;;;;;;19.27;63.37;102062.53;7395798;19;20082;-58
2023/07/08 06:42:48;;;;;;;6.53;3.25;;;;;;;19.33;63.42;102064.63;7395918;19;20484;-58
2023/07/08 06:45:15;;;;;;;7.47;3.42;;;;;;;19.40;62.51;102068.47;7394621;19;20026;-57
2023/07/08 06:47:42;;;;;;;6.38;3.10;;;;;;;19.43;62.70;102065.53;7394835;19;20019;-58
2023/07/08 06:50:10;;;;;;;5.55;3.17;;;;;;;19.48;62.79;102060.56;7391390;19;20044;-58
2023/07/08 06:52:37;;;;;;;7.10;3.40;;;;;;;19.53;62.66;102060.13;7395077;19;20018;-58
2023/07/08 06:55:09;;;;;;;8.60;3.20;;;;;;;19.60;62.31;102057.75;7394355;19;20332;-58
2023/07/08 06:57:38;;;;;;;6.30;3.10;;;;;;;19.62;62.05;102050.44;7392995;19;20486;-57
2023/07/08 07:00:07;;;;;;;5.80;3.17;;;;;;;19.67;62.66;102050.88;7394526;19;20018;-58
2023/07/08 07:02:37;;;;;;;10.23;3.22;;;;;;;19.74;62.46;102052.00;7395401;19;20027;-58
2023/07/08 07:05:05;;;;;;;6.75;3.30;;;;;;;19.77;61.46;102056.25;7394248;19;20010;-58
2023/07/08 07:07:34;;;;;;;6.05;3.15;;;;;;;19.80;61.19;102047.88;7391439;19;20018;-58
2023/07/08 07:10:02;;;;;;;5.65;3.30;;;;;;;19.86;61.15;102050.88;7392366;19;20053;-57
2023/07/08 07:12:30;;;;;;;5.63;3.28;;;;;;;19.89;61.03;102047.06;7394527;19;20038;-58
2023/07/08 07:14:57;;;;;;;6.50;3.13;;;;;;;19.93;60.72;102051.16;7393838;19;20048;-59
2023/07/08 07:17:26;;;;;;;7.50;3.47;;;;;;;20.01;60.96;102051.28;7394024;19;20018;-58
2023/07/08 07:19:54;;;;;;;6.57;3.28;;;;;;;20.11;60.40;102052.13;7394439;19;20122;-58
2023/07/08 07:22:21;;;;;;;7.18;3.13;;;;;;;20.17;60.32;102051.53;7395119;19;20266;-60
2023/07/08 07:24:49;;;;;;;5.70;3.10;;;;;;;20.17;60.66;102048.84;7393744;19;20031;-60
2023/07/08 07:27:16;;;;;;;7.10;3.20;;;;;;;20.22;60.68;102048.41;7391949;19;20078;-60
2023/07/08 07:29:51;;;;;;;8.57;3.00;;;;;;;20.31;60.12;102042.19;7392626;19;20014;-59
2023/07/08 07:32:21;;;;;;;6.38;3.40;;;;;;;20.39;59.57;102036.91;7394225;19;20023;-59
2023/07/08 07:34:50;;;;;;;6.93;3.40;;;;;;;20.44;59.66;102048.09;7394007;19;20022;-60
2023/07/08 07:37:21;;;;;;;7.38;3.30;;;;;;;20.43;59.85;102040.16;7397429;19;20040;-60
2023/07/08 07:39:49;;;;;;;8.55;3.38;;;;;;;20.45;59.79;102032.78;7394403;19;20042;-61
2023/07/08 07:42:18;;;;;;;7.35;3.28;;;;;;;20.56;59.30;102034.47;7393389;19;20053;-61
2023/07/08 07:44:46;;;;;;;4.90;2.97;;;;;;;20.57;59.79;102025.44;7391969;19;20010;-60
2023/07/08 07:47:14;;;;;;;6.93;3.00;;;;;;;20.65;59.72;102023.69;7391437;19;20410;-60
2023/07/08 07:49:41;;;;;;;6.72;3.42;;;;;;;20.72;59.42;102023.97;7393193;19;20054;-60
2023/07/08 07:52:10;;;;;;;6.53;3.20;;;;;;;20.79;59.23;102029.56;7393109;19;20014;-60
2023/07/08 07:54:39;;;;;;;8.02;3.10;;;;;;;20.81;59.73;102025.75;7393806;19;20015;-60
2023/07/08 07:57:06;;;;;;;6.35;3.28;;;;;;;20.87;59.45;102032.38;7392274;19;20532;-60
2023/07/08 07:59:34;;;;;;;6.90;3.20;;;;;;;20.92;59.01;102035.47;7391991;19;20150;-60
2023/07/08 08:02:01;;;;;;;6.28;3.13;;;;;;;20.94;59.22;102022.69;7393309;19;20030;-60
2023/07/08 08:04:28;;;;;;;4.72;3.13;;;;;;;21.03;59.07;102026.34;7393376;19;20014;-62
2023/07/08 08:06:56;;;;;;;7.95;3.35;;;;;;;21.09;58.22;102020.34;7392187;19;20052;-60
2023/07/08 08:09:23;;;;;;;5.57;3.00;;;;;;;21.11;57.61;102026.44;7391075;19;20036;-63
2023/07/08 08:11:51;;;;;;;5.50;3.00;;;;;;;21.18;57.41;102028.38;7393134;19;20081;-62
2023/07/08 08:14:19;;;;;;;6.40;3.60;;;;;;;21.29;57.20;102029.16;7392620;19;20479;-61
2023/07/08 08:16:46;;;;;;;6.75;3.00;;;;;;;21.30;57.27;102028.16;7390052;19;20022;-61
2023/07/08 08:19:13;;;;;;;6.53;3.30;;;;;;;21.33;57.73;102033.25;7389839;19;20448;-61
2023/07/08 08:21:40;;;;;;;6.30;3.42;;;;;;;21.39;57.28;102029.97;7392146;19;20023;-61
2023/07/08 08:24:08;;;;;;;6.68;3.38;;;;;;;21.41;56.73;102033.38;7392536;19;20046;-60
2023/07/08 08:26:35;;;;;;;6.00;3.50;;;;;;;21.39;56.16;102029.97;7389601;19;20014;-60
2023/07/08 08:29:02;;;;;;;4.80;3.00;;;;;;;21.45;56.20;102031.22;7389343;19;20022;-58
2023/07/08 08:31:31;;;;;;;5.95;3.30;;;;;;;21.51;55.95;102031.44;7391260;19;20477;-64
2023/07/08 08:33:58;;;;;;;6.25;3.08;;;;;;;21.55;56.02;102029.28;7392237;19;20078;-61
2023/07/08 08:36:25;;;;;;;7.35;3.50;;;;;;;21.63;55.81;102026.66;7392677;19;20019;-61
2023/07/08 08:38:52;;;;;;;5.63;3.22;;;;;;;21.69;55.65;102030.59;7390504;19;20025;-61
2023/07/08 08:41:34;;;;;;;4.63;2.90;;;;;;;21.84;55.23;102032.59;7391465;19;20498;-60
2023/07/08 08:44:03;;;;;;;6.05;3.40;;;;;;;21.94;55.19;102018.16;7391584;19;20480;-61
2023/07/08 08:46:33;;;;;;;7.63;3.55;;;;;;;21.87;55.50;102020.66;7390501;19;20023;-62
2023/07/08 08:49:40;;;;;;;6.25;3.03;;;;;;;21.92;56.29;102023.72;7390075;19;20021;-62
2023/07/08 08:52:07;;;;;;;5.95;3.20;;;;;;;21.92;55.77;102022.88;7391360;19;20479;-56
2023/07/08 08:54:35;;;;;;;6.13;3.25;;;;;;;21.96;56.02;102014.31;7389956;19;20492;-57
2023/07/08 08:57:11;;;;;;;5.78;3.30;;;;;;;22.01;54.99;102017.38;7388962;19;20010;-56
2023/07/08 08:59:52;;;;;;;7.80;3.33;;;;;;;22.09;55.30;102019.28;7391418;19;20018;-57
2023/07/08 09:02:48;;;;;;;8.52;3.28;;;;;;;22.11;54.67;102018.13;7389498;19;20556;-57
2023/07/08 09:05:16;;;;;;;5.97;3.40;;;;;;;22.08;55.68;102004.97;7388825;19;20026;-58
2023/07/08 09:08:12;;;;;;;5.93;3.00;;;;;;;22.22;54.60;102006.28;7388603;19;20035;-59
2023/07/08 09:10:51;;;;;;;4.88;3.10;;;;;;;22.24;55.11;102008.81;7389141;19;20015;-59
2023/07/08 09:13:32;;;;;;;5.75;3.20;;;;;;;22.29;55.70;102001.09;7391228;19;20026;-59
2023/07/08 09:16:24;;;;;;;6.78;3.33;;;;;;;22.47;55.22;102001.00;7390094;19;20006;-59
2023/07/08 09:19:12;;;;;;;8.48;3.40;;;;;;;22.42;55.50;102009.59;7387534;19;20507;-60
2023/07/08 09:21:49;;;;;;;8.10;3.60;;;;;;;22.44;55.07;102010.28;7388590;19;20074;-59
2023/07/08 09:24:22;;;;;;;5.78;3.10;;;;;;;22.50;55.33;102006.09;7390329;19;20018;-58
2023/07/08 09:26:51;;;;;;;7.20;3.42;;;;;;;22.54;55.08;102005.59;7390151;19;20014;-59
2023/07/08 09:29:21;;;;;;;6.53;3.10;;;;;;;22.63;55.56;102010.06;7387068;19;20378;-58
2023/07/08 09:31:48;;;;;;;7.60;3.20;;;;;;;22.64;55.28;102005.50;7396521;19;20158;-58
2023/07/08 09:34:22;;;;;;;4.85;3.20;;;;;;;22.84;54.68;102003.38;7397934;19;20019;-59
2023/07/08 09:36:51;;;;;;;6.20;3.15;;;;;;;22.76;54.46;102003.34;7399878;19;20026;-58
2023/07/08 09:39:20;;;;;;;7.72;3.05;;;;;;;22.74;54.89;101999.94;7394433;19;20011;-58
2023/07/08 09:41:49;;;;;;;6.68;3.33;;;;;;;22.86;54.31;101995.97;7395934;19;20018;-58
2023/07/08 09:44:33;;;;;;;8.93;3.63;;;;;;;22.87;55.10;102003.06;7397523;19;20088;-58
2023/07/08 09:47:00;;;;;;;5.22;3.25;;;;;;;22.94;54.97;102004.13;7396432;19;20026;-57
2023/07/08 09:49:32;;;;;;;4.65;2.97;;;;;;;22.96;54.98;102002.09;7396128;19;20018;-58
2023/07/08 09:52:01;;;;;;;6.47;3.35;;;;;;;22.98;54.66;102001.97;7397634;19;20022;-59
2023/07/08 09:54:30;;;;;;;5.20;3.35;;;;;;;22.97;55.19;102000.25;7396459;19;20026;-59
2023/07/08 09:57:11;;;;;;;5.80;3.10;;;;;;;23.07;54.79;102004.50;7396924;19;20035;-59
2023/07/08 09:59:46;;;;;;;5.63;3.25;;;;;;;23.08;54.75;101997.22;7396942;19;20018;-59
2023/07/08 10:02:39;;;;;;;4.55;3.00;;;;;;;23.31;53.44;101994.75;7397049;19;20022;-59
2023/07/08 10:05:31;;;;;;;5.22;3.10;;;;;;;23.25;53.71;101996.28;7395853;19;20019;-58
2023/07/08 10:07:58;;;;;;;7.50;3.40;;;;;;;23.21;53.88;101994.06;7395880;19;20026;-59
2023/07/08 10:10:32;;;;;;;8.68;3.00;;;;;;;23.34;53.19;101994.44;7394714;19;20042;-60
2023/07/08 10:13:38;;;;;;;5.47;3.03;;;;;;;23.42;52.67;101990.88;7396467;19;20129;-58
2023/07/08 10:16:28;;;;;;;5.07;3.22;;;;;;;23.41;53.64;101991.91;7393458;19;20494;-59
2023/07/08 10:18:56;;;;;;;5.18;3.20;;;;;;;23.49;53.27;101994.63;7394266;19;20018;-60
2023/07/08 10:21:29;;;;;;;5.72;2.78;;;;;;;23.66;52.68;101992.75;7396011;19;20460;-59
2023/07/08 10:24:30;;;;;;;6.68;3.47;;;;;;;23.76;52.17;101985.34;7396779;19;20022;-57
2023/07/08 10:27:07;;;;;;;5.43;3.30;;;;;;;23.69;52.28;101987.03;7395741;19;20022;-58
2023/07/08 10:29:41;;;;;;;5.57;3.45;;;;;;;23.69;52.08;101987.03;7395740;19;20015;-59
2023/07/08 10:32:14;;;;;;;5.85;3.40;;;;;;;23.77;52.19;101978.94;7395902;19;20014;-59
2023/07/08 10:34:56;;;;;;;5.65;3.20;;;;;;;23.94;52.63;101985.19;7396135;19;20039;-58
2023/07/08 10:37:45;;;;;;;5.85;3.28;;;;;;;24.12;52.18;101977.72;7398533;19;20540;-59
2023/07/08 10:40:24;;;;;;;6.03;3.45;;;;;;;24.21;51.59;101968.56;7395931;19;20033;-58
2023/07/08 10:43:37;;;;;;;5.05;3.15;;;;;;;24.27;52.25;101972.44;7395003;19;20032;-59
2023/07/08 10:46:41;;;;;;;5.35;2.80;;;;;;;24.18;50.92;101974.31;7395269;19;20019;-59
2023/07/08 10:49:17;;;;;;;6.05;3.30;;;;;;;24.27;50.86;101967.03;7392911;19;20029;-58
2023/07/08 10:52:00;;;;;;;4.90;3.05;;;;;;;24.30;49.52;101966.66;7395323;19;20075;-58
2023/07/08 10:54:39;;;;;;;;;;;;;;;24.20;50.04;101972.28;7396632;19;20504;-58
2023/07/08 10:57:10;;;;;;;6.40;3.35;;;;;;;24.15;50.81;101966.53;7394100;19;19943;-58
2023/07/08 10:59:52;;;;;;;8.50;3.60;;;;;;;24.31;50.46;101965.66;7394549;19;20043;-58
2023/07/08 11:02:39;;;;;;;7.60;3.40;;;;;;;24.42;50.78;101961.75;7395461;19;20046;-57
2023/07/08 11:05:34;;;;;;;4.97;3.25;;;;;;;24.50;50.36;101962.59;7394693;19;20059;-58
2023/07/08 11:08:12;;;;;;;5.28;3.17;;;;;;;24.56;49.35;101964.56;7393432;19;20046;-58
2023/07/08 11:11:03;;;;;;;6.07;2.97;;;;;;;24.64;49.53;101960.97;7393817;19;20024;-58
2023/07/08 11:13:39;;;;;;;6.45;3.17;;;;;;;24.67;49.46;101951.66;7393678;19;20015;-59
2023/07/08 11:16:12;;;;;;;5.53;3.25;;;;;;;24.55;49.95;101953.91;7393897;19;20483;-59
2023/07/08 11:18:45;;;;;;;6.53;3.38;;;;;;;24.54;50.21;101961.22;7392521;19;20491;-58
2023/07/08 11:21:29;;;;;;;9.38;3.47;;;;;;;24.50;50.53;101953.63;7394740;19;20025;-58
2023/07/08 11:24:04;;;;;;;5.03;3.10;;;;;;;24.53;50.42;101943.25;7394381;19;20026;-58
2023/07/08 11:26:58;;;;;;;5.28;2.95;;;;;;;24.59;49.60;101939.00;7393817;19;20023;-58
2023/07/08 11:29:51;;;;;;;5.45;3.35;;;;;;;24.77;50.07;101944.19;7393847;19;20048;-58
2023/07/08 11:32:23;;;;;;;6.97;3.60;;;;;;;24.83;49.57;101948.03;7391806;19;20395;-58
2023/07/08 11:34:52;;;;;;;5.95;3.30;;;;;;;24.87;49.52;101944.78;7393088;19;20243;-59
2023/07/08 11:37:21;;;;;;;6.45;3.50;;;;;;;24.95;48.98;101941.16;7396617;19;20027;-58
2023/07/08 11:40:19;;;;;;;5.93;3.17;;;;;;;25.13;47.93;101933.63;7394087;19;20015;-58
2023/07/08 11:42:52;;;;;;;6.43;3.65;;;;;;;25.02;47.84;101928.59;7393113;19;20092;-59